Time;durP1;ratioP1;P1;durP2;ratioP2;P2;SDS_P1;SDS_P2;PMS_P1;PMS_P2;Temp;Humidity;BMP_temperature;BMP_pressure;BME280_temperature;BME280_humidity;BME280_pressure;Samples;Min_cycle;Max_cycle;Signal;HPM_P1;HPM_P2
2021/12/06 00:00:25;;;;;;;;;;;1.40;99.90;;;;;;5046510;28;20213;-72
2021/12/06 00:02:53;;;;;;;;;;;1.40;99.90;;;;;;5046006;28;19921;-72
2021/12/06 00:05:19;;;;;;;;;;;1.40;99.90;;;;;;5045438;28;20144;-72
2021/12/06 00:07:46;;;;;;;;;;;1.40;99.90;;;;;;5042808;28;19921;-72
2021/12/06 00:10:13;;;;;;;;;;;1.40;99.90;;;;;;5046711;28;19972;-71
2021/12/06 00:12:41;;;;;;;;;;;1.40;99.90;;;;;;5045474;28;19928;-72
2021/12/06 00:15:09;;;;;;;;;;;1.40;99.90;;;;;;5045687;28;19921;-72
2021/12/06 00:17:37;;;;;;;;;;;1.40;99.90;;;;;;5046056;28;19921;-72
2021/12/06 00:20:06;;;;;;;;;;;1.40;99.90;;;;;;5062551;28;19921;-72
2021/12/06 00:22:32;;;;;;;;;;;1.50;99.90;;;;;;5066473;28;19921;-72
2021/12/06 00:24:59;;;;;;;;;;;1.50;99.90;;;;;;5064714;28;19932;-72
2021/12/06 00:27:26;;;;;;;;;;;1.50;99.90;;;;;;5041296;28;19928;-72
2021/12/06 00:29:53;;;;;;;;;;;1.50;99.90;;;;;;5046481;28;19921;-71
2021/12/06 00:32:21;;;;;;;;;;;1.50;99.90;;;;;;5045396;28;19988;-72
2021/12/06 00:34:49;;;;;;;;;;;1.50;99.90;;;;;;5046024;28;19923;-72
2021/12/06 00:37:20;;;;;;;;;;;1.50;99.90;;;;;;5029211;28;20094;-72
2021/12/06 00:39:48;;;;;;;;;;;1.40;99.90;;;;;;5026087;28;19944;-71
2021/12/06 00:42:15;;;;;;;;;;;1.40;99.90;;;;;;5025307;28;19921;-72
2021/12/06 00:44:42;;;;;;;;;;;1.40;99.90;;;;;;5025706;28;19956;-72
2021/12/06 00:47:09;;;;;;;;;;;1.40;99.90;;;;;;5026210;28;19963;-72
2021/12/06 00:49:36;;;;;;;;;;;1.40;99.90;;;;;;5026270;28;20121;-72
2021/12/06 00:52:04;;;;;;;;;;;1.40;99.90;;;;;;5033733;28;19921;-72
2021/12/06 00:54:34;;;;;;;;;;;1.40;99.90;;;;;;5045155;28;19925;-72
2021/12/06 00:57:01;;;;;;;;;;;1.40;99.90;;;;;;5045670;28;19921;-72
2021/12/06 00:59:27;;;;;;;;;;;1.40;99.90;;;;;;5045858;28;19932;-72
2021/12/06 01:01:54;;;;;;;;;;;1.40;99.90;;;;;;5044995;28;20144;-72
2021/12/06 01:04:21;;;;;;;;;;;1.40;99.90;;;;;;5045284;28;19988;-72
2021/12/06 01:06:47;;;;;;;;;;;1.40;99.90;;;;;;5045430;28;19921;-72
2021/12/06 01:09:15;;;;;;;;;;;1.40;99.90;;;;;;5045227;28;20213;-72
2021/12/06 01:11:42;;;;;;;;;;;1.50;99.90;;;;;;5044823;28;19928;-72
2021/12/06 01:14:09;;;;;;;;;;;1.50;99.90;;;;;;5044720;28;19921;-72
2021/12/06 01:16:35;;;;;;;;;;;1.50;99.90;;;;;;5034503;28;19922;-72
2021/12/06 01:19:02;;;;;;;;;;;1.50;99.90;;;;;;5025545;28;19929;-72
2021/12/06 01:21:40;;;;;;;;;;;1.50;99.90;;;;;;5024973;28;19984;-72
2021/12/06 01:24:09;;;;;;;;;;;1.50;99.90;;;;;;5024913;28;19925;-72
2021/12/06 01:26:57;;;;;;;;;;;1.50;99.90;;;;;;5036958;28;19980;-72
2021/12/06 01:32:16;;;;;;;;;;;1.50;99.90;;;;;;5039822;28;20220;-72
2021/12/06 01:40:11;;;;;;;;;;;1.50;99.90;;;;;;5025927;28;19929;-72
2021/12/06 01:42:39;;;;;;;;;;;1.60;99.90;;;;;;5025095;28;19921;-72
2021/12/06 01:45:07;;;;;;;;;;;1.60;99.90;;;;;;5023910;28;19925;-72
2021/12/06 01:47:35;;;;;;;;;;;1.60;99.90;;;;;;5044474;28;19925;-72
2021/12/06 01:50:04;;;;;;;;;;;1.60;99.90;;;;;;5044735;28;19925;-72
2021/12/06 01:52:32;;;;;;;;;;;1.60;99.90;;;;;;5043525;28;20231;-72
2021/12/06 01:54:59;;;;;;;;;;;1.60;99.90;;;;;;5041776;28;19933;-72
2021/12/06 01:57:27;;;;;;;;;;;1.60;99.90;;;;;;5042638;28;19928;-72
2021/12/06 01:59:56;;;;;;;;;;;1.60;99.90;;;;;;5044217;28;19929;-71
2021/12/06 02:02:23;;;;;;;;;;;1.60;99.90;;;;;;5043493;28;19921;-74
2021/12/06 02:04:49;;;;;;;;;;;1.60;99.90;;;;;;5043633;28;19921;-72
2021/12/06 02:07:17;;;;;;;;;;;1.50;99.90;;;;;;5028654;28;19921;-72
2021/12/06 02:09:45;;;;;;;;;;;1.60;99.90;;;;;;5024660;28;20159;-72
2021/12/06 02:12:12;;;;;;;;;;;1.60;99.90;;;;;;5023846;28;19926;-72
2021/12/06 02:14:48;;;;;;;;;;;1.50;99.90;;;;;;5031568;28;19992;-72
2021/12/06 02:17:20;;;;;;;;;;;1.50;99.90;;;;;;5043706;28;19921;-72
2021/12/06 02:19:49;;;;;;;;;;;1.40;99.90;;;;;;5043767;28;19925;-72
2021/12/06 02:22:18;;;;;;;;;;;1.40;99.90;;;;;;5043303;28;19921;-72
2021/12/06 02:24:44;;;;;;;;;;;1.40;99.90;;;;;;5026025;28;20116;-72
2021/12/06 02:27:12;;;;;;;;;;;1.50;99.90;;;;;;5027531;28;20201;-72
2021/12/06 02:29:39;;;;;;;;;;;1.50;99.90;;;;;;5024319;28;19943;-72
2021/12/06 02:32:10;;;;;;;;;;;1.50;99.90;;;;;;5023403;28;20136;-72
2021/12/06 02:34:36;;;;;;;;;;;1.50;99.90;;;;;;5023480;28;20131;-71
2021/12/06 02:37:03;;;;;;;;;;;1.50;99.90;;;;;;5034788;28;19921;-72
2021/12/06 02:39:31;;;;;;;;;;;1.50;99.90;;;;;;5043891;28;19943;-72
2021/12/06 02:42:00;;;;;;;;;;;1.50;99.90;;;;;;5042981;28;19957;-72
2021/12/06 02:44:27;;;;;;;;;;;1.40;99.90;;;;;;5043185;28;19988;-72
2021/12/06 02:46:53;;;;;;;;;;;1.50;99.90;;;;;;5043295;28;19929;-72
2021/12/06 02:49:20;;;;;;;;;;;1.40;99.90;;;;;;5038045;28;19921;-72
2021/12/06 02:51:46;;;;;;;;;;;1.40;99.90;;;;;;5023778;28;20225;-72
2021/12/06 02:54:13;;;;;;;;;;;1.40;99.90;;;;;;5033798;28;19921;-72
2021/12/06 02:56:53;;;;;;;;;;;1.40;99.90;;;;;;5037979;28;19921;-72
2021/12/06 02:59:21;;;;;;;;;;;1.50;99.90;;;;;;5043330;28;19988;-72
2021/12/06 03:01:48;;;;;;;;;;;1.40;99.90;;;;;;5043264;28;19921;-72
2021/12/06 03:04:15;;;;;;;;;;;1.40;99.90;;;;;;5043193;28;19921;-72
2021/12/06 03:06:42;;;;;;;;;;;1.40;99.90;;;;;;5038731;28;19921;-72
2021/12/06 03:09:11;;;;;;;;;;;1.40;99.90;;;;;;5043561;28;19925;-72
2021/12/06 03:11:39;;;;;;;;;;;1.40;99.90;;;;;;5042975;28;19956;-71
2021/12/06 03:14:09;;;;;;;;;;;1.50;99.90;;;;;;5043042;28;19921;-71
2021/12/06 03:16:35;;;;;;;;;;;1.50;99.90;;;;;;5041117;28;19921;-72
2021/12/06 03:19:04;;;;;;;;;;;1.50;99.90;;;;;;5043308;28;19920;-71
2021/12/06 03:21:30;;;;;;;;;;;1.50;99.90;;;;;;5043002;28;19921;-72
2021/12/06 03:23:58;;;;;;;;;;;1.50;99.90;;;;;;5042864;28;19921;-72
2021/12/06 03:26:24;;;;;;;;;;;1.50;99.90;;;;;;5042865;28;19930;-72
2021/12/06 03:28:51;;;;;;;;;;;1.50;99.90;;;;;;5043001;28;20124;-72
2021/12/06 03:31:20;;;;;;;;;;;1.50;99.90;;;;;;5042944;28;19929;-71
2021/12/06 03:33:47;;;;;;;;;;;1.40;99.90;;;;;;5033401;28;20112;-72
2021/12/06 03:36:15;;;;;;;;;;;1.50;99.90;;;;;;5027094;28;19925;-71
2021/12/06 03:38:42;;;;;;;;;;;1.50;99.90;;;;;;5043020;28;19928;-71
2021/12/06 03:41:10;;;;;;;;;;;1.50;99.90;;;;;;5042585;28;19921;-71
2021/12/06 03:43:37;;;;;;;;;;;1.50;99.90;;;;;;5042750;28;19921;-72
2021/12/06 03:46:04;;;;;;;;;;;1.50;99.90;;;;;;5037920;28;19928;-72
2021/12/06 03:48:32;;;;;;;;;;;1.50;99.90;;;;;;5043178;28;19921;-71
2021/12/06 03:50:59;;;;;;;;;;;1.50;99.90;;;;;;5043081;28;19921;-72
2021/12/06 03:53:26;;;;;;;;;;;1.50;99.90;;;;;;5042869;28;19928;-71
2021/12/06 03:55:52;;;;;;;;;;;1.50;99.90;;;;;;5038044;28;19928;-70
2021/12/06 03:58:19;;;;;;;;;;;1.50;99.90;;;;;;5043063;28;19945;-72
2021/12/06 04:00:46;;;;;;;;;;;1.50;99.90;;;;;;5043757;28;19964;-72
2021/12/06 04:03:13;;;;;;;;;;;1.60;99.90;;;;;;5046381;28;19931;-71
2021/12/06 04:05:40;;;;;;;;;;;1.60;99.90;;;;;;5043060;28;19929;-71
2021/12/06 04:08:07;;;;;;;;;;;1.50;99.90;;;;;;5045841;28;19928;-70
2021/12/06 04:10:34;;;;;;;;;;;1.50;99.90;;;;;;5046930;28;19921;-71
2021/12/06 04:13:01;;;;;;;;;;;1.60;99.90;;;;;;5046752;28;19927;-71
2021/12/06 04:15:31;;;;;;;;;;;1.50;99.90;;;;;;5044107;28;20200;-72
2021/12/06 04:17:57;;;;;;;;;;;1.50;99.90;;;;;;5044862;28;20155;-71
2021/12/06 04:20:24;;;;;;;;;;;1.60;99.90;;;;;;5046699;28;20116;-71
2021/12/06 04:22:52;;;;;;;;;;;1.60;99.90;;;;;;5046435;28;20213;-72
2021/12/06 04:25:19;;;;;;;;;;;1.60;99.90;;;;;;5045066;28;19928;-72
2021/12/06 04:27:51;;;;;;;;;;;1.50;99.90;;;;;;5042370;28;19927;-72
2021/12/06 04:30:18;;;;;;;;;;;1.60;99.90;;;;;;5046580;28;19967;-72
2021/12/06 04:32:45;;;;;;;;;;;1.60;99.90;;;;;;5046570;28;19921;-71
2021/12/06 04:35:12;;;;;;;;;;;1.60;99.90;;;;;;5045250;28;19921;-72
2021/12/06 04:37:39;;;;;;;;;;;1.60;99.90;;;;;;5042189;28;19921;-71
2021/12/06 04:40:08;;;;;;;;;;;1.60;99.90;;;;;;5046135;28;19921;-71
2021/12/06 04:42:34;;;;;;;;;;;1.60;99.90;;;;;;5045920;28;19928;-71
2021/12/06 04:45:01;;;;;;;;;;;1.60;99.90;;;;;;5026278;28;19921;-72
2021/12/06 04:47:28;;;;;;;;;;;1.60;99.90;;;;;;5041167;28;19921;-71
2021/12/06 04:49:54;;;;;;;;;;;1.60;99.90;;;;;;5046236;28;19927;-71
2021/12/06 04:52:21;;;;;;;;;;;1.60;99.90;;;;;;5046258;28;19921;-71
2021/12/06 04:54:50;;;;;;;;;;;1.70;99.90;;;;;;5045250;28;19933;-72
2021/12/06 04:57:22;;;;;;;;;;;1.60;99.90;;;;;;5041166;28;19921;-71
2021/12/06 04:59:50;;;;;;;;;;;1.70;99.90;;;;;;5045987;28;19944;-72
2021/12/06 05:02:19;;;;;;;;;;;1.60;99.90;;;;;;5045775;28;19921;-71
2021/12/06 05:04:48;;;;;;;;;;;1.60;99.90;;;;;;5045056;28;19922;-71
2021/12/06 05:07:16;;;;;;;;;;;1.70;99.90;;;;;;5032350;28;19922;-71
2021/12/06 05:09:43;;;;;;;;;;;1.70;99.90;;;;;;5039430;28;20205;-71
2021/12/06 05:12:11;;;;;;;;;;;1.70;99.90;;;;;;5045351;28;19928;-71
2021/12/06 05:14:39;;;;;;;;;;;1.70;99.90;;;;;;5045519;28;19921;-70
2021/12/06 05:17:06;;;;;;;;;;;1.70;99.90;;;;;;5044809;28;19921;-73
2021/12/06 05:19:32;;;;;;;;;;;1.70;99.90;;;;;;5040534;28;19921;-72
2021/12/06 05:21:59;;;;;;;;;;;1.70;99.90;;;;;;5045656;28;19929;-72
2021/12/06 05:24:26;;;;;;;;;;;1.70;99.90;;;;;;5045319;28;19921;-73
2021/12/06 05:26:53;;;;;;;;;;;1.70;99.90;;;;;;5034273;28;20209;-72
2021/12/06 05:29:21;;;;;;;;;;;1.70;99.90;;;;;;5025614;28;19953;-72
2021/12/06 05:31:55;;;;;;;;;;;1.70;99.90;;;;;;5025387;28;20232;-72
2021/12/06 05:34:29;;;;;;;;;;;1.70;99.90;;;;;;5029242;28;19921;-72
2021/12/06 05:36:55;;;;;;;;;;;1.70;99.90;;;;;;5040244;28;20005;-72
2021/12/06 05:39:22;;;;;;;;;;;1.70;99.90;;;;;;5045182;28;19927;-73
2021/12/06 05:41:48;;;;;;;;;;;1.70;99.90;;;;;;5045405;28;19928;-73
2021/12/06 05:44:15;;;;;;;;;;;1.70;99.90;;;;;;5045121;28;19936;-72
2021/12/06 05:46:42;;;;;;;;;;;1.70;99.90;;;;;;5044828;28;19921;-72
2021/12/06 05:49:10;;;;;;;;;;;1.70;99.90;;;;;;5044402;28;19925;-73
2021/12/06 05:51:36;;;;;;;;;;;1.80;99.90;;;;;;5044469;28;19925;-71
2021/12/06 05:54:03;;;;;;;;;;;1.80;99.90;;;;;;5044102;28;19927;-72
2021/12/06 05:56:29;;;;;;;;;;;1.80;99.90;;;;;;5044436;28;20359;-72
2021/12/06 05:58:56;;;;;;;;;;;1.80;99.90;;;;;;5045007;28;19921;-72
2021/12/06 06:01:29;;;;;;;;;;;1.80;99.90;;;;;;5044699;28;19921;-71
2021/12/06 06:03:55;;;;;;;;;;;1.80;99.90;;;;;;5044897;28;19959;-72
2021/12/06 06:06:23;;;;;;;;;;;1.80;99.90;;;;;;5044682;28;20112;-72
2021/12/06 06:08:50;;;;;;;;;;;1.80;99.90;;;;;;5044878;28;19925;-72
2021/12/06 06:11:16;;;;;;;;;;;1.80;99.90;;;;;;5044784;28;19927;-72
2021/12/06 06:13:43;;;;;;;;;;;1.80;99.90;;;;;;5044708;28;19921;-73
2021/12/06 06:16:09;;;;;;;;;;;1.80;99.90;;;;;;5036315;28;19960;-72
2021/12/06 06:18:36;;;;;;;;;;;1.80;99.90;;;;;;5024589;28;20216;-72
2021/12/06 06:21:05;;;;;;;;;;;1.80;99.90;;;;;;5024593;28;20255;-72
2021/12/06 06:23:33;;;;;;;;;;;1.80;99.90;;;;;;5024130;28;20259;-72
2021/12/06 06:25:59;;;;;;;;;;;1.80;99.90;;;;;;5024348;28;19927;-71
2021/12/06 06:28:26;;;;;;;;;;;1.70;99.90;;;;;;5024758;28;19928;-72
2021/12/06 06:30:52;;;;;;;;;;;1.80;99.90;;;;;;5024268;28;19928;-71
2021/12/06 06:33:19;;;;;;;;;;;1.80;99.90;;;;;;5023994;28;20153;-73
2021/12/06 06:35:46;;;;;;;;;;;1.70;99.90;;;;;;5034616;28;19921;-72
2021/12/06 06:38:12;;;;;;;;;;;1.70;99.90;;;;;;5043928;28;19944;-72
2021/12/06 06:40:40;;;;;;;;;;;1.70;99.90;;;;;;5043752;28;19925;-72
2021/12/06 06:43:07;;;;;;;;;;;1.80;99.90;;;;;;5043358;28;19921;-72
2021/12/06 06:45:34;;;;;;;;;;;1.80;99.90;;;;;;5041488;28;20024;-72
2021/12/06 06:48:01;;;;;;;;;;;1.80;99.90;;;;;;5027284;28;19928;-72
2021/12/06 06:50:27;;;;;;;;;;;1.80;99.90;;;;;;5043882;28;19921;-72
2021/12/06 06:52:54;;;;;;;;;;;1.80;99.90;;;;;;5044020;28;19921;-72
2021/12/06 06:55:22;;;;;;;;;;;1.80;99.90;;;;;;5040657;28;19944;-73
2021/12/06 06:57:51;;;;;;;;;;;1.80;99.90;;;;;;5024419;28;19957;-72
2021/12/06 07:00:18;;;;;;;;;;;1.70;99.90;;;;;;5032235;28;19921;-72
2021/12/06 07:02:45;;;;;;;;;;;1.70;99.90;;;;;;5044074;28;19924;-72
2021/12/06 07:05:11;;;;;;;;;;;1.70;99.90;;;;;;5041940;28;19928;-72
2021/12/06 07:07:39;;;;;;;;;;;1.70;99.90;;;;;;5039003;28;19921;-72
2021/12/06 07:10:06;;;;;;;;;;;1.70;99.90;;;;;;5043044;28;19935;-72
2021/12/06 07:12:40;;;;;;;;;;;1.70;99.90;;;;;;5024236;28;20108;-72
2021/12/06 07:15:10;;;;;;;;;;;1.70;99.90;;;;;;5029382;28;19921;-71
2021/12/06 07:17:36;;;;;;;;;;;1.70;99.90;;;;;;5057207;28;19970;-71
2021/12/06 07:20:03;;;;;;;;;;;1.70;99.90;;;;;;5044556;28;20121;-72
2021/12/06 07:22:30;;;;;;;;;;;1.80;99.90;;;;;;5043667;28;19925;-72
2021/12/06 07:24:56;;;;;;;;;;;1.80;99.90;;;;;;5042704;28;19927;-72
2021/12/06 07:27:23;;;;;;;;;;;1.80;99.90;;;;;;5035618;28;19946;-72
2021/12/06 07:29:49;;;;;;;;;;;1.80;99.90;;;;;;5030810;28;19929;-72
2021/12/06 07:32:18;;;;;;;;;;;1.80;99.90;;;;;;5044823;28;19927;-71
2021/12/06 07:34:44;;;;;;;;;;;1.80;99.90;;;;;;5042362;28;19956;-71
2021/12/06 07:37:11;;;;;;;;;;;1.70;99.90;;;;;;5047095;28;19927;-73
2021/12/06 07:39:37;;;;;;;;;;;1.80;99.90;;;;;;5044808;28;19929;-72
2021/12/06 07:42:04;;;;;;;;;;;1.80;99.90;;;;;;5038737;28;19921;-72
2021/12/06 07:44:31;;;;;;;;;;;1.80;99.90;;;;;;5038650;28;20225;-73
2021/12/06 07:46:58;;;;;;;;;;;1.80;99.90;;;;;;5045781;28;19921;-73
2021/12/06 07:49:26;;;;;;;;;;;1.80;99.90;;;;;;5045699;28;20090;-73
2021/12/06 07:51:54;;;;;;;;;;;1.80;99.90;;;;;;5046876;28;19928;-73
2021/12/06 07:54:20;;;;;;;;;;;1.80;99.90;;;;;;5045835;28;19944;-73
2021/12/06 07:56:47;;;;;;;;;;;1.70;99.90;;;;;;5043862;28;19921;-73
2021/12/06 07:59:14;;;;;;;;;;;1.80;99.90;;;;;;5046507;28;19943;-72
2021/12/06 08:01:40;;;;;;;;;;;1.80;99.90;;;;;;5046440;28;20267;-73
2021/12/06 08:04:07;;;;;;;;;;;1.80;99.90;;;;;;5046035;28;19928;-73
2021/12/06 08:06:37;;;;;;;;;;;1.80;99.90;;;;;;5035664;28;19928;-73
2021/12/06 08:09:04;;;;;;;;;;;1.70;99.90;;;;;;5046497;28;19921;-73
2021/12/06 08:11:31;;;;;;;;;;;1.80;99.90;;;;;;5045745;28;19921;-73
2021/12/06 08:13:57;;;;;;;;;;;1.80;99.90;;;;;;5046278;28;20112;-71
2021/12/06 08:16:25;;;;;;;;;;;1.80;99.90;;;;;;5045714;28;19944;-72
2021/12/06 08:18:52;;;;;;;;;;;1.80;99.90;;;;;;5046477;28;19921;-72
2021/12/06 08:21:19;;;;;;;;;;;1.80;99.90;;;;;;5045592;28;20140;-72
2021/12/06 08:23:48;;;;;;;;;;;1.80;99.90;;;;;;5046189;28;20113;-72
2021/12/06 08:26:15;;;;;;;;;;;1.80;99.90;;;;;;5038623;28;19949;-72
2021/12/06 08:28:43;;;;;;;;;;;1.80;99.90;;;;;;5026110;28;19928;-72
2021/12/06 08:31:10;;;;;;;;;;;1.80;99.90;;;;;;5041296;28;19921;-73
2021/12/06 08:33:38;;;;;;;;;;;1.80;99.90;;;;;;5045937;28;19924;-73
2021/12/06 08:36:05;;;;;;;;;;;1.80;99.90;;;;;;5044985;28;19928;-73
2021/12/06 08:38:33;;;;;;;;;;;1.80;99.90;;;;;;5044485;28;19927;-73
2021/12/06 08:41:02;;;;;;;;;;;1.80;99.90;;;;;;5044491;28;20230;-73
2021/12/06 08:43:29;;;;;;;;;;;1.80;99.90;;;;;;5045788;28;19927;-73
2021/12/06 08:45:58;;;;;;;;;;;1.90;99.90;;;;;;5040039;28;20213;-73
2021/12/06 08:48:27;;;;;;;;;;;1.90;99.90;;;;;;5043806;28;19925;-71
2021/12/06 08:50:54;;;;;;;;;;;1.90;99.90;;;;;;5045205;28;19925;-73
2021/12/06 08:53:20;;;;;;;;;;;1.90;99.90;;;;;;5045537;28;19927;-73
2021/12/06 08:55:47;;;;;;;;;;;1.90;99.90;;;;;;5044919;28;19921;-73
2021/12/06 08:58:16;;;;;;;;;;;1.90;99.90;;;;;;5040131;28;19921;-73
2021/12/06 09:00:43;;;;;;;;;;;1.90;99.90;;;;;;5044209;28;20267;-73
2021/12/06 09:03:20;;;;;;;;;;;;;;;;;;;;;
2021/12/06 09:05:49;;;;;;;;;;;1.90;99.90;;;;;;5041704;28;19964;-73
2021/12/06 09:08:18;;;;;;;;;;;2.00;99.90;;;;;;5044998;28;20120;-73
2021/12/06 09:10:49;;;;;;;;;;;2.00;99.90;;;;;;5045354;28;19956;-74
2021/12/06 09:13:18;;;;;;;;;;;2.00;99.90;;;;;;5045150;28;20216;-72
2021/12/06 09:15:45;;;;;;;;;;;2.10;99.90;;;;;;5042308;28;19929;-73
2021/12/06 09:18:11;;;;;;;;;;;2.00;99.90;;;;;;5044455;28;19921;-71
2021/12/06 09:20:39;;;;;;;;;;;2.00;99.90;;;;;;5044352;28;19928;-72
2021/12/06 09:23:07;;;;;;;;;;;2.10;99.90;;;;;;5045057;28;20216;-72
2021/12/06 09:25:34;;;;;;;;;;;2.10;99.90;;;;;;5044050;28;19956;-72
2021/12/06 09:28:00;;;;;;;;;;;2.10;99.90;;;;;;5045451;28;19921;-72
2021/12/06 09:30:30;;;;;;;;;;;2.10;99.90;;;;;;5044484;28;19927;-72
2021/12/06 09:32:57;;;;;;;;;;;2.20;99.90;;;;;;5044622;28;19928;-72
2021/12/06 09:35:27;;;;;;;;;;;2.20;99.90;;;;;;5042708;28;20144;-72
2021/12/06 09:37:54;;;;;;;;;;;2.20;99.90;;;;;;5042510;28;19921;-71
2021/12/06 09:40:22;;;;;;;;;;;2.20;99.90;;;;;;5044303;28;19988;-72
2021/12/06 09:42:48;;;;;;;;;;;2.30;99.90;;;;;;5036459;28;19949;-72
2021/12/06 09:45:16;;;;;;;;;;;2.30;99.90;;;;;;5044010;28;19949;-73
2021/12/06 09:47:50;;;;;;;;;;;2.40;99.90;;;;;;5030630;28;19921;-77
2021/12/06 09:50:17;;;;;;;;;;;2.40;99.90;;;;;;5043790;28;19921;-72
2021/12/06 09:52:44;;;;;;;;;;;2.50;99.90;;;;;;5043630;28;20233;-72
2021/12/06 09:55:11;;;;;;;;;;;2.50;99.90;;;;;;5040369;28;20120;-72
2021/12/06 09:57:37;;;;;;;;;;;2.50;99.90;;;;;;5024799;28;19928;-72
2021/12/06 10:00:05;;;;;;;;;;;2.60;99.90;;;;;;5026506;28;19921;-72
2021/12/06 10:02:31;;;;;;;;;;;2.60;99.90;;;;;;5044361;28;20208;-72
2021/12/06 10:04:59;;;;;;;;;;;2.70;99.90;;;;;;5044395;28;19921;-72
2021/12/06 10:07:27;;;;;;;;;;;2.60;99.90;;;;;;5041798;28;19953;-72
2021/12/06 10:09:53;;;;;;;;;;;2.70;99.90;;;;;;5024690;28;19927;-72
2021/12/06 10:12:21;;;;;;;;;;;2.70;99.90;;;;;;5023735;28;19921;-72
2021/12/06 10:14:48;;;;;;;;;;;2.70;99.90;;;;;;5023247;28;19929;-72
2021/12/06 10:17:16;;;;;;;;;;;2.60;99.90;;;;;;5039727;28;19921;-72
2021/12/06 10:19:43;;;;;;;;;;;2.60;99.90;;;;;;5044217;28;19921;-72
2021/12/06 10:22:11;;;;;;;;;;;2.60;99.90;;;;;;5044342;28;19927;-71
2021/12/06 10:24:38;;;;;;;;;;;2.60;99.90;;;;;;5044016;28;19963;-72
2021/12/06 10:27:07;;;;;;;;;;;2.60;99.90;;;;;;5039290;28;19983;-72
2021/12/06 10:29:43;;;;;;;;;;;2.50;99.90;;;;;;5042854;28;19974;-71
2021/12/06 10:32:14;;;;;;;;;;;2.60;99.90;;;;;;5035082;28;19960;-72
2021/12/06 10:34:44;;;;;;;;;;;2.60;99.90;;;;;;5029908;28;19921;-71
2021/12/06 10:37:26;;;;;;;;;;;2.60;99.90;;;;;;5043486;28;19921;-72
2021/12/06 10:39:53;;;;;;;;;;;2.70;99.90;;;;;;5029929;28;19930;-72
2021/12/06 10:42:26;;;;;;;;;;;2.70;99.90;;;;;;5034877;28;19927;-72
2021/12/06 10:44:52;;;;;;;;;;;2.70;99.90;;;;;;5038795;28;19921;-72
2021/12/06 10:47:19;;;;;;;;;;;2.70;99.90;;;;;;5036624;28;19953;-72
2021/12/06 10:49:47;;;;;;;;;;;2.70;99.90;;;;;;5043953;28;19921;-72
2021/12/06 10:52:23;;;;;;;;;;;2.80;99.90;;;;;;5043803;28;19992;-71
2021/12/06 10:54:52;;;;;;;;;;;2.90;99.90;;;;;;5043405;28;19921;-72
2021/12/06 10:57:19;;;;;;;;;;;3.20;99.90;;;;;;5043365;28;19921;-72
2021/12/06 10:59:46;;;;;;;;;;;3.40;99.90;;;;;;5038836;28;19925;-72
2021/12/06 11:02:15;;;;;;;;;;;3.60;99.90;;;;;;5043372;28;19921;-72
2021/12/06 11:04:42;;;;;;;;;;;3.70;99.90;;;;;;5043108;28;20152;-72
2021/12/06 11:07:09;;;;;;;;;;;3.70;99.90;;;;;;5038528;28;19925;-72
2021/12/06 11:09:39;;;;;;;;;;;3.70;99.90;;;;;;5043531;28;19927;-72
2021/12/06 11:12:07;;;;;;;;;;;3.70;99.90;;;;;;5042879;28;19921;-72
2021/12/06 11:14:35;;;;;;;;;;;3.70;99.90;;;;;;5043063;28;19992;-72
2021/12/06 11:17:03;;;;;;;;;;;3.70;99.90;;;;;;5031285;28;19928;-74
2021/12/06 11:19:31;;;;;;;;;;;3.80;99.90;;;;;;5023589;28;20271;-73
2021/12/06 11:22:00;;;;;;;;;;;3.90;99.90;;;;;;5023645;28;19929;-73
2021/12/06 11:24:27;;;;;;;;;;;4.10;99.90;;;;;;5023335;28;20121;-72
2021/12/06 11:26:57;;;;;;;;;;;4.40;99.90;;;;;;5025403;28;20232;-73
2021/12/06 11:29:25;;;;;;;;;;;4.60;99.90;;;;;;5043871;28;19921;-74
2021/12/06 11:31:54;;;;;;;;;;;4.80;99.90;;;;;;5041688;28;19928;-72
2021/12/06 11:34:21;;;;;;;;;;;4.80;99.90;;;;;;5042988;28;19928;-73
2021/12/06 11:36:47;;;;;;;;;;;4.90;99.90;;;;;;5039444;28;19921;-73
2021/12/06 11:39:15;;;;;;;;;;;5.10;99.90;;;;;;5043316;28;19921;-73
2021/12/06 11:41:43;;;;;;;;;;;5.10;99.90;;;;;;5043227;28;19929;-72
2021/12/06 11:44:16;;;;;;;;;;;5.10;99.90;;;;;;5043040;28;19921;-72
2021/12/06 11:46:43;;;;;;;;;;;5.30;99.90;;;;;;5039365;28;20204;-72
2021/12/06 11:49:20;;;;;;;;;;;5.40;99.90;;;;;;5037898;28;19943;-72
2021/12/06 11:51:47;;;;;;;;;;;5.60;99.90;;;;;;5043198;28;20087;-72
2021/12/06 11:54:14;;;;;;;;;;;5.80;99.90;;;;;;5042807;28;20108;-72
2021/12/06 11:56:44;;;;;;;;;;;5.80;99.90;;;;;;5042338;28;19928;-72
2021/12/06 11:59:12;;;;;;;;;;;5.70;99.90;;;;;;5040737;28;19928;-72
2021/12/06 12:01:41;;;;;;;;;;;5.80;99.90;;;;;;5043407;28;20098;-73
2021/12/06 12:04:08;;;;;;;;;;;5.80;99.90;;;;;;5042351;28;19921;-72
2021/12/06 12:06:36;;;;;;;;;;;5.80;99.90;;;;;;5041456;28;19925;-72
2021/12/06 12:09:13;;;;;;;;;;;5.90;99.90;;;;;;5041325;28;21210;-72
2021/12/06 12:11:57;;;;;;;;;;;5.80;99.90;;;;;;5040678;28;19928;-72
2021/12/06 12:14:29;;;;;;;;;;;5.50;99.90;;;;;;5042781;28;19925;-73
2021/12/06 12:16:57;;;;;;;;;;;5.30;99.90;;;;;;5029096;28;19928;-72
2021/12/06 12:19:24;;;;;;;;;;;4.90;99.90;;;;;;5031900;28;19932;-72
2021/12/06 12:21:50;;;;;;;;;;;4.70;99.90;;;;;;5041672;28;19960;-72
2021/12/06 12:24:17;;;;;;;;;;;4.70;99.90;;;;;;5044769;28;19921;-72
2021/12/06 12:26:54;;;;;;;;;;;4.60;99.90;;;;;;5043777;28;19928;-72
2021/12/06 12:29:25;;;;;;;;;;;4.40;99.90;;;;;;5026452;28;19936;-72
2021/12/06 12:31:53;;;;;;;;;;;4.30;99.90;;;;;;5026572;28;19993;-72
2021/12/06 12:34:22;;;;;;;;;;;4.30;99.90;;;;;;5026098;28;19921;-72
2021/12/06 12:36:49;;;;;;;;;;;4.40;99.90;;;;;;5026352;28;20117;-73
2021/12/06 12:39:17;;;;;;;;;;;4.40;99.90;;;;;;5030251;28;20205;-73
2021/12/06 12:41:48;;;;;;;;;;;4.40;99.90;;;;;;5026270;28;19922;-73
2021/12/06 12:44:15;;;;;;;;;;;4.40;99.90;;;;;;5025648;28;19922;-73
2021/12/06 12:46:44;;;;;;;;;;;4.30;99.90;;;;;;5026235;28;19921;-73
2021/12/06 12:49:12;;;;;;;;;;;4.30;99.90;;;;;;5026309;28;20169;-72
2021/12/06 12:51:45;;;;;;;;;;;4.30;99.90;;;;;;5026536;28;19922;-74
2021/12/06 12:54:16;;;;;;;;;;;4.30;99.90;;;;;;5036549;28;19921;-73
2021/12/06 12:56:45;;;;;;;;;;;4.30;99.90;;;;;;5046529;28;19921;-73
2021/12/06 12:59:20;;;;;;;;;;;4.30;99.90;;;;;;5046021;28;19921;-73
2021/12/06 13:02:10;;;;;;;;;;;4.20;99.90;;;;;;5033004;28;19929;-73
2021/12/06 13:04:55;;;;;;;;;;;4.20;99.90;;;;;;5025492;28;19921;-73
2021/12/06 13:07:24;;;;;;;;;;;4.20;99.90;;;;;;5040639;28;20258;-73
2021/12/06 13:09:51;;;;;;;;;;;4.10;99.90;;;;;;5043197;28;19927;-73
2021/12/06 13:12:18;;;;;;;;;;;4.10;99.90;;;;;;5045869;28;19921;-73
2021/12/06 13:14:48;;;;;;;;;;;4.00;99.90;;;;;;5045026;28;19921;-73
2021/12/06 13:17:23;;;;;;;;;;;4.00;99.90;;;;;;5040835;28;19927;-73
2021/12/06 13:19:56;;;;;;;;;;;3.80;99.90;;;;;;5045748;28;20116;-74
2021/12/06 13:22:30;;;;;;;;;;;3.70;99.90;;;;;;5045344;28;19988;-73
2021/12/06 13:24:59;;;;;;;;;;;3.70;99.90;;;;;;5044968;28;20255;-73
2021/12/06 13:27:43;;;;;;;;;;;3.60;99.90;;;;;;5041361;28;22334;-73
2021/12/06 13:30:12;;;;;;;;;;;3.60;99.90;;;;;;5025508;28;19930;-73
2021/12/06 13:32:41;;;;;;;;;;;3.60;99.90;;;;;;5024863;28;19960;-73
2021/12/06 13:35:16;;;;;;;;;;;3.50;99.90;;;;;;5027121;28;19921;-73
2021/12/06 13:37:58;;;;;;;;;;;3.50;99.90;;;;;;5038437;28;19927;-73
2021/12/06 13:40:24;;;;;;;;;;;3.50;99.90;;;;;;5044895;28;20208;-74
2021/12/06 13:42:51;;;;;;;;;;;3.50;99.90;;;;;;5045005;28;19921;-74
2021/12/06 13:45:18;;;;;;;;;;;3.40;99.90;;;;;;5044599;28;19928;-73
2021/12/06 13:47:47;;;;;;;;;;;3.40;99.90;;;;;;5045158;28;19921;-73
2021/12/06 13:50:15;;;;;;;;;;;3.40;99.90;;;;;;5045074;28;19921;-73
2021/12/06 13:52:43;;;;;;;;;;;3.40;99.90;;;;;;5045137;28;19921;-73
2021/12/06 13:55:21;;;;;;;;;;;3.30;99.90;;;;;;5042680;28;19927;-73
2021/12/06 13:57:49;;;;;;;;;;;3.20;99.90;;;;;;5043682;28;19928;-73
2021/12/06 14:00:23;;;;;;;;;;;3.20;99.90;;;;;;5044877;28;19921;-73
2021/12/06 14:02:50;;;;;;;;;;;3.10;99.90;;;;;;5024750;28;19968;-74
2021/12/06 14:05:17;;;;;;;;;;;3.10;99.90;;;;;;5024254;28;19928;-73
2021/12/06 14:07:44;;;;;;;;;;;3.20;99.90;;;;;;5028313;28;20121;-74
2021/12/06 14:10:13;;;;;;;;;;;3.20;99.90;;;;;;5044672;28;19925;-73
2021/12/06 14:12:42;;;;;;;;;;;3.20;99.90;;;;;;5044619;28;19956;-73
2021/12/06 14:15:18;;;;;;;;;;;3.20;99.90;;;;;;5043811;28;19960;-73
2021/12/06 14:17:50;;;;;;;;;;;3.20;99.90;;;;;;5041827;28;19921;-72
2021/12/06 14:20:20;;;;;;;;;;;3.10;99.90;;;;;;5044731;28;19929;-73
2021/12/06 14:22:52;;;;;;;;;;;3.10;99.90;;;;;;5044969;28;19980;-73
2021/12/06 14:25:19;;;;;;;;;;;3.00;99.90;;;;;;5042967;28;19927;-73
2021/12/06 14:27:48;;;;;;;;;;;3.00;99.90;;;;;;5028784;28;19951;-72
2021/12/06 14:30:17;;;;;;;;;;;3.00;99.90;;;;;;5024574;28;19922;-73
2021/12/06 14:32:48;;;;;;;;;;;3.00;99.90;;;;;;5024266;28;19964;-73
2021/12/06 14:35:14;;;;;;;;;;;3.00;99.90;;;;;;5023942;28;19921;-73
2021/12/06 14:37:41;;;;;;;;;;;2.90;99.90;;;;;;5035305;28;19921;-73
2021/12/06 14:40:09;;;;;;;;;;;2.90;99.90;;;;;;5039789;28;20212;-73
2021/12/06 14:42:36;;;;;;;;;;;2.90;99.90;;;;;;5043819;28;19927;-73
2021/12/06 14:45:04;;;;;;;;;;;2.80;99.90;;;;;;5042679;28;19921;-73